Time;durP1;ratioP1;P1;durP2;ratioP2;P2;SDS_P1;SDS_P2;PMS_P1;PMS_P2;Temp;Humidity;BMP_temperature;BMP_pressure;BME280_temperature;BME280_humidity;BME280_pressure;Samples;Min_cycle;Max_cycle;Signal;HPM_P1;HPM_P2
2022/12/13 12:09:18;;;;;;;89.63;84.07;;;0.30;99.90;;;;;;5049789;28;20458;-59
2022/12/13 12:12:01;;;;;;;97.20;90.82;;;0.40;99.90;;;;;;5035799;28;20383;-58
2022/12/13 12:14:48;;;;;;;99.43;93.38;;;0.40;99.90;;;;;;5054898;28;20474;-59
2022/12/13 12:17:18;;;;;;;101.20;94.90;;;0.40;99.90;;;;;;5062786;28;20380;-59
2022/12/13 12:19:47;;;;;;;107.95;101.22;;;0.50;99.90;;;;;;5045290;28;20418;-60
2022/12/13 12:22:24;;;;;;;114.20;107.17;;;0.50;99.90;;;;;;5043870;28;21175;-60
2022/12/13 12:25:10;;;;;;;106.68;99.93;;;0.50;99.90;;;;;;5060480;28;20407;-60
2022/12/13 12:27:59;;;;;;;102.78;96.50;;;0.60;99.90;;;;;;5060002;28;20376;-60
2022/12/13 12:30:43;;;;;;;107.95;101.60;;;0.60;99.90;;;;;;5057210;28;20372;-59
2022/12/13 12:33:15;;;;;;;99.57;93.38;;;0.70;99.90;;;;;;5036907;28;20386;-60
2022/12/13 12:36:03;;;;;;;103.07;96.22;;;0.80;99.90;;;;;;5038176;28;20778;-60
2022/12/13 12:38:46;;;;;;;108.13;101.50;;;0.90;99.90;;;;;;5026230;28;20411;-60
2022/12/13 12:41:51;;;;;;;106.50;100.17;;;1.00;99.90;;;;;;5059141;28;20541;-58
2022/12/13 12:44:57;;;;;;;113.18;106.43;;;1.10;99.90;;;;;;5041323;28;20392;-56
2022/12/13 12:47:38;;;;;;;121.22;113.93;;;1.30;99.90;;;;;;5044476;28;20380;-59
2022/12/13 12:50:28;;;;;;;134.52;126.63;;;1.40;99.90;;;;;;5044598;28;20380;-59
2022/12/13 12:53:27;;;;;;;151.65;142.90;;;1.60;99.90;;;;;;5041636;28;20683;-60
2022/12/13 12:56:15;;;;;;;136.07;127.75;;;1.50;99.90;;;;;;5043860;28;20483;-59
2022/12/13 12:59:02;;;;;;;134.38;126.43;;;1.30;99.90;;;;;;5046648;28;20394;-59
2022/12/13 13:01:55;;;;;;;125.97;118.53;;;1.30;99.90;;;;;;5059345;28;20376;-59
2022/12/13 13:04:26;;;;;;;128.27;120.53;;;1.20;99.90;;;;;;5040654;28;20418;-59
2022/12/13 13:07:13;;;;;;;118.05;110.97;;;1.10;99.90;;;;;;5039331;28;20387;-59
2022/12/13 13:09:39;;;;;;;112.35;105.45;;;1.10;99.90;;;;;;5040738;28;20447;-60
2022/12/13 13:12:07;;;;;;;97.50;91.45;;;0.80;99.90;;;;;;5043160;28;21020;-60
2022/12/13 13:14:38;;;;;;;103.95;97.43;;;0.70;99.90;;;;;;5045867;28;20387;-59
2022/12/13 13:17:15;;;;;;;109.38;102.57;;;0.90;99.90;;;;;;5063855;28;20379;-59
2022/12/13 13:20:10;;;;;;;101.40;94.85;;;0.80;99.90;;;;;;5045920;28;20391;-58
2022/12/13 13:22:37;;;;;;;104.80;98.22;;;0.70;99.90;;;;;;5001323;28;20568;-58
2022/12/13 13:25:06;;;;;;;102.95;96.50;;;0.60;99.90;;;;;;5037813;28;20451;-59
2022/12/13 13:27:39;;;;;;;104.57;97.95;;;0.60;99.90;;;;;;5041274;28;20632;-58
2022/12/13 13:30:07;;;;;;;107.68;100.95;;;0.40;99.90;;;;;;5040617;28;20445;-58
2022/12/13 13:32:38;;;;;;;113.60;106.75;;;0.40;99.90;;;;;;5042829;28;20387;-58
2022/12/13 13:35:42;;;;;;;114.30;107.27;;;0.40;99.90;;;;;;5041707;28;20387;-59
2022/12/13 13:38:16;;;;;;;115.73;108.20;;;0.50;99.90;;;;;;5039353;28;21053;-59
2022/12/13 13:40:41;;;;;;;107.72;100.47;;;0.40;99.90;;;;;;5038431;28;20577;-59
2022/12/13 13:43:10;;;;;;;113.82;106.75;;;0.40;99.90;;;;;;5036090;28;20704;-58
2022/12/13 13:45:56;;;;;;;113.00;106.10;;;0.60;99.90;;;;;;5048999;28;20492;-58
2022/12/13 13:48:39;;;;;;;111.40;104.35;;;0.70;99.90;;;;;;5027664;28;20775;-57
2022/12/13 13:51:25;;;;;;;114.28;107.25;;;0.80;99.90;;;;;;5049401;28;20560;-58
2022/12/13 13:54:23;;;;;;;124.50;116.55;;;1.00;99.90;;;;;;5031165;28;20569;-58
2022/12/13 13:57:20;;;;;;;133.45;125.40;;;1.10;99.90;;;;;;5032595;28;20760;-58
2022/12/13 14:00:19;;;;;;;121.17;113.70;;;1.20;99.90;;;;;;5029295;28;20376;-59
2022/12/13 14:03:15;;;;;;;122.23;114.80;;;1.30;99.90;;;;;;5029387;28;20512;-59
2022/12/13 14:06:22;;;;;;;124.43;116.82;;;1.30;99.90;;;;;;5031146;28;20417;-59
2022/12/13 14:09:10;;;;;;;135.85;127.50;;;1.30;99.90;;;;;;4972461;28;20609;-59
2022/12/13 14:11:39;;;;;;;133.82;125.90;;;1.30;99.90;;;;;;5030005;28;20576;-58
2022/12/13 14:14:11;;;;;;;125.78;118.40;;;1.30;99.90;;;;;;5031091;28;20413;-59
2022/12/13 14:17:01;;;;;;;129.73;121.57;;;1.30;99.90;;;;;;5031974;28;20391;-59
2022/12/13 14:19:41;;;;;;;123.95;116.50;;;1.20;99.90;;;;;;5033244;28;20580;-57
2022/12/13 14:22:43;;;;;;;128.88;121.00;;;1.20;99.90;;;;;;5027831;28;21001;-59
2022/12/13 14:25:22;;;;;;;125.97;118.20;;;1.30;99.90;;;;;;5033088;28;20517;-58
2022/12/13 14:28:06;;;;;;;126.82;118.85;;;1.40;99.90;;;;;;5040141;28;20376;-59
2022/12/13 14:30:32;;;;;;;128.33;120.60;;;1.40;99.90;;;;;;5036753;28;20387;-60
2022/12/13 14:32:58;;;;;;;129.90;122.23;;;1.50;99.90;;;;;;5036243;28;20376;-59
2022/12/13 14:35:27;;;;;;;131.93;123.83;;;1.50;99.90;;;;;;5038018;28;20398;-59
2022/12/13 14:38:16;;;;;;;123.72;116.28;;;1.40;99.90;;;;;;5057688;28;20388;-59
2022/12/13 14:40:51;;;;;;;135.63;127.65;;;1.40;99.90;;;;;;5042683;28;20827;-59
2022/12/13 14:43:30;;;;;;;134.07;125.95;;;1.40;99.90;;;;;;5041485;28;20890;-59
2022/12/13 14:46:03;;;;;;;133.48;125.55;;;1.50;99.90;;;;;;5060825;28;20396;-59
2022/12/13 14:48:36;;;;;;;131.43;123.40;;;1.40;99.90;;;;;;5042399;28;20468;-59
2022/12/13 14:51:03;;;;;;;135.50;127.47;;;1.40;99.90;;;;;;5059929;28;20770;-59
2022/12/13 14:53:36;;;;;;;130.98;122.80;;;1.50;99.90;;;;;;5043470;28;20423;-59
2022/12/13 14:56:03;;;;;;;132.95;124.88;;;1.50;99.90;;;;;;5046023;28;20391;-58
2022/12/13 14:58:29;;;;;;;133.93;125.50;;;1.40;99.90;;;;;;5045341;28;20391;-59
2022/12/13 15:00:54;;;;;;;133.30;125.07;;;1.40;99.90;;;;;;5046229;28;20460;-59
2022/12/13 15:03:23;;;;;;;136.50;128.07;;;1.30;99.90;;;;;;5047228;28;20771;-58
2022/12/13 15:05:53;;;;;;;131.10;123.03;;;1.30;99.90;;;;;;5064155;28;20795;-59
2022/12/13 15:08:19;;;;;;;131.05;122.80;;;1.20;99.90;;;;;;5066371;28;20400;-56
2022/12/13 15:10:48;;;;;;;125.73;117.77;;;1.10;99.90;;;;;;5048622;28;20384;-57
2022/12/13 15:13:26;;;;;;;126.03;117.90;;;1.10;99.90;;;;;;5049004;28;20485;-59
2022/12/13 15:15:54;;;;;;;121.47;113.57;;;1.10;99.90;;;;;;5048095;28;20479;-57
2022/12/13 15:18:23;;;;;;;122.57;114.75;;;0.90;99.90;;;;;;5065452;28;20375;-58
2022/12/13 15:20:50;;;;;;;118.65;110.78;;;0.90;99.90;;;;;;5065850;28;20375;-55
2022/12/13 15:23:31;;;;;;;119.47;111.60;;;0.90;99.90;;;;;;5064588;28;20395;-59
2022/12/13 15:26:02;;;;;;;128.10;119.53;;;0.90;99.90;;;;;;5043044;28;20472;-59
2022/12/13 15:28:35;;;;;;;114.65;106.75;;;0.80;99.90;;;;;;5042219;28;20386;-59
2022/12/13 15:31:03;;;;;;;116.38;108.60;;;0.70;99.90;;;;;;5042421;28;20379;-59
2022/12/13 15:33:31;;;;;;;118.30;110.43;;;0.70;99.90;;;;;;5040534;28;20488;-59
2022/12/13 15:36:26;;;;;;;120.53;112.40;;;0.70;99.90;;;;;;5040766;28;20422;-59
2022/12/13 15:38:55;;;;;;;113.88;106.18;;;0.70;99.90;;;;;;5030641;28;20410;-57
2022/12/13 15:41:33;;;;;;;109.13;101.60;;;0.70;99.90;;;;;;5040244;28;20423;-59
2022/12/13 15:44:04;;;;;;;112.93;105.07;;;0.50;99.90;;;;;;5042156;28;20904;-58
2022/12/13 15:46:36;;;;;;;104.50;96.80;;;0.30;99.90;;;;;;5043354;28;20386;-59
2022/12/13 15:49:05;;;;;;;88.88;81.97;;;0.10;99.90;;;;;;5045657;28;20462;-58
2022/12/13 15:51:30;;;;;;;83.90;77.03;;;0.00;99.90;;;;;;5047318;28;20383;-59
2022/12/13 15:54:08;;;;;;;82.57;75.77;;;-0.10;99.90;;;;;;5047563;28;20415;-58
2022/12/13 15:56:42;;;;;;;78.72;71.90;;;-0.10;99.90;;;;;;5047121;28;20845;-57
2022/12/13 15:59:43;;;;;;;86.93;79.93;;;-0.20;99.90;;;;;;5047873;28;20843;-57
2022/12/13 16:02:22;;;;;;;97.30;89.47;;;-0.10;99.90;;;;;;4947360;28;20407;-59
2022/12/13 16:04:48;;;;;;;95.80;88.18;;;0.00;99.90;;;;;;5032111;28;21043;-58
2022/12/13 16:07:33;;;;;;;98.22;90.40;;;0.00;99.90;;;;;;5044265;28;20391;-59
2022/12/13 16:09:58;;;;;;;96.32;88.88;;;-0.10;99.90;;;;;;5044916;28;20454;-57
2022/12/13 16:12:31;;;;;;;91.43;84.33;;;-0.20;99.90;;;;;;5045055;28;20711;-59
2022/12/13 16:15:46;;;;;;;94.18;86.75;;;-0.10;99.90;;;;;;5044555;28;20410;-58
2022/12/13 16:18:19;;;;;;;90.85;83.93;;;-0.20;99.90;;;;;;5040362;28;20471;-58
2022/12/13 16:20:45;;;;;;;88.70;81.47;;;-0.20;99.90;;;;;;5063754;28;20982;-59
2022/12/13 16:23:11;;;;;;;92.13;84.73;;;-0.20;99.90;;;;;;5046172;28;20461;-55
2022/12/13 16:25:36;;;;;;;87.85;80.55;;;-0.20;99.90;;;;;;5042669;28;20396;-58
2022/12/13 16:28:02;;;;;;;89.03;81.72;;;-0.20;99.90;;;;;;5061303;28;20449;-58
2022/12/13 16:30:50;;;;;;;84.25;77.28;;;-0.20;99.90;;;;;;5060244;28;20384;-55
2022/12/13 16:33:16;;;;;;;87.40;80.18;;;-0.20;99.90;;;;;;5043486;28;20388;-57
2022/12/13 16:35:42;;;;;;;85.22;77.95;;;-0.20;99.90;;;;;;5046238;28;20399;-58
2022/12/13 16:38:12;;;;;;;87.17;80.13;;;-0.30;99.90;;;;;;5045465;28;20490;-58
2022/12/13 16:40:38;;;;;;;86.95;79.35;;;-0.30;99.90;;;;;;5042295;28;20394;-57
2022/12/13 16:43:05;;;;;;;87.40;80.13;;;-0.30;99.90;;;;;;5041087;28;20384;-58
2022/12/13 16:45:39;;;;;;;88.88;81.25;;;-0.40;99.90;;;;;;5043138;28;20395;-57
2022/12/13 16:48:05;;;;;;;91.03;83.53;;;-0.40;99.90;;;;;;5045364;28;20388;-58
2022/12/13 16:50:31;;;;;;;96.63;88.72;;;-0.50;99.90;;;;;;5046472;28;20674;-57
2022/12/13 16:52:57;;;;;;;105.47;96.82;;;-0.50;99.90;;;;;;5064040;28;20802;-59
2022/12/13 16:55:22;;;;;;;106.32;97.63;;;-0.50;99.90;;;;;;5065931;28;20380;-59
2022/12/13 16:58:16;;;;;;;98.57;90.57;;;-0.60;99.90;;;;;;5048975;28;20440;-59
2022/12/13 17:00:43;;;;;;;105.47;97.25;;;-0.60;99.90;;;;;;5062173;28;20387;-59
2022/12/13 17:03:11;;;;;;;105.72;97.25;;;-0.60;99.90;;;;;;5066444;28;20380;-57
2022/12/13 17:05:38;;;;;;;98.88;90.82;;;-0.60;99.90;;;;;;5046646;28;20439;-57
2022/12/13 17:08:04;;;;;;;98.43;90.80;;;-0.70;99.90;;;;;;5048127;28;20842;-58
2022/12/13 17:10:29;;;;;;;93.45;85.50;;;-0.60;99.90;;;;;;5050122;28;20444;-58
2022/12/13 17:12:55;;;;;;;102.78;94.57;;;-0.70;99.90;;;;;;5066068;28;20905;-59
2022/12/13 17:15:21;;;;;;;111.55;102.78;;;-0.80;99.90;;;;;;5063520;28;20387;-58
2022/12/13 17:17:47;;;;;;;113.80;105.13;;;-0.80;99.90;;;;;;5045630;28;20392;-59
2022/12/13 17:20:16;;;;;;;106.28;98.07;;;-0.70;99.90;;;;;;5043539;28;20384;-59
2022/12/13 17:22:43;;;;;;;99.35;91.40;;;-0.60;99.90;;;;;;5042171;28;20399;-59
2022/12/13 17:25:10;;;;;;;102.60;94.57;;;-0.60;99.90;;;;;;5041636;28;20864;-59
2022/12/13 17:27:36;;;;;;;94.47;86.50;;;-0.50;99.90;;;;;;5055286;28;20580;-56
2022/12/13 17:30:03;;;;;;;95.47;87.17;;;-0.60;99.90;;;;;;5040222;28;20525;-58
2022/12/13 17:32:29;;;;;;;96.20;88.13;;;-0.60;99.90;;;;;;5043072;28;20390;-58
2022/12/13 17:34:55;;;;;;;105.05;96.32;;;-0.70;99.90;;;;;;5061260;28;20376;-59
2022/12/13 17:37:20;;;;;;;95.27;87.37;;;-0.80;99.90;;;;;;5061422;28;20406;-58
2022/12/13 17:39:46;;;;;;;90.10;82.23;;;-0.70;99.90;;;;;;5043029;28;20395;-60
2022/12/13 17:42:12;;;;;;;95.13;87.27;;;-0.80;99.90;;;;;;5043781;28;20423;-59
2022/12/13 17:44:38;;;;;;;91.83;84.33;;;-0.80;99.90;;;;;;5043852;28;20418;-59
2022/12/13 17:47:04;;;;;;;94.03;86.63;;;-0.80;99.90;;;;;;5065251;28;20498;-60
2022/12/13 17:49:30;;;;;;;92.38;84.65;;;-0.60;99.90;;;;;;5050072;28;20383;-59
2022/12/13 17:51:55;;;;;;;87.63;80.20;;;-0.60;99.90;;;;;;5064636;28;20395;-59
2022/12/13 17:54:23;;;;;;;89.40;82.05;;;-0.60;99.90;;;;;;5047553;28;20387;-58
2022/12/13 17:56:48;;;;;;;84.85;77.40;;;-0.60;99.90;;;;;;5062533;28;20380;-59
2022/12/13 17:59:15;;;;;;;79.73;72.80;;;-0.60;99.90;;;;;;5044954;28;20390;-57
2022/12/13 18:01:45;;;;;;;81.80;74.80;;;-0.60;99.90;;;;;;5045470;28;20545;-53
2022/12/13 18:04:11;;;;;;;85.80;78.68;;;-0.60;99.90;;;;;;5042713;28;20403;-58
2022/12/13 18:06:38;;;;;;;86.22;78.82;;;-0.70;99.90;;;;;;5041411;28;20391;-59
2022/12/13 18:09:04;;;;;;;88.60;81.20;;;-0.80;99.90;;;;;;5025854;28;20405;-59
2022/12/13 18:11:30;;;;;;;87.72;80.50;;;-0.90;99.90;;;;;;5018722;28;20412;-59
2022/12/13 18:13:55;;;;;;;87.55;80.05;;;-0.80;99.90;;;;;;5021387;28;20404;-58
2022/12/13 18:16:22;;;;;;;90.68;82.57;;;-0.80;99.90;;;;;;5024034;28;20388;-57
2022/12/13 18:18:47;;;;;;;89.95;82.45;;;-0.80;99.90;;;;;;5022642;28;20527;-59
2022/12/13 18:21:15;;;;;;;89.03;81.60;;;-0.80;99.90;;;;;;5022617;28;20738;-58
2022/12/13 18:23:41;;;;;;;85.77;78.57;;;-0.70;99.90;;;;;;5024522;28;20405;-59
2022/12/13 18:26:12;;;;;;;79.93;72.90;;;-0.70;99.90;;;;;;5026690;28;20701;-59
2022/12/13 18:28:38;;;;;;;83.55;76.45;;;-0.80;99.90;;;;;;5022795;28;20733;-58
2022/12/13 18:31:10;;;;;;;79.82;72.57;;;-0.80;99.90;;;;;;5041212;28;20966;-59
2022/12/13 18:33:37;;;;;;;81.32;74.55;;;-0.80;99.90;;;;;;5043472;28;20393;-58
2022/12/13 18:36:04;;;;;;;77.37;70.67;;;-0.80;99.90;;;;;;5023126;28;20389;-60
2022/12/13 18:38:30;;;;;;;76.30;69.30;;;-0.70;99.90;;;;;;5022331;28;20820;-58
2022/12/13 18:40:56;;;;;;;80.57;73.68;;;-0.80;99.90;;;;;;5024621;28;20397;-59
2022/12/13 18:43:23;;;;;;;82.93;75.72;;;-1.00;99.90;;;;;;5028059;28;20879;-57
2022/12/13 18:45:52;;;;;;;82.82;75.90;;;-1.10;99.90;;;;;;5027468;28;20661;-58
2022/12/13 18:48:19;;;;;;;82.18;75.55;;;-1.20;99.90;;;;;;5028415;28;20382;-59
2022/12/13 18:50:45;;;;;;;81.43;74.80;;;-1.10;99.90;;;;;;5029717;28;20424;-59
2022/12/13 18:53:10;;;;;;;82.10;75.15;;;-1.10;99.90;;;;;;5047117;28;20443;-60
2022/12/13 18:55:36;;;;;;;82.53;75.45;;;-1.20;99.90;;;;;;5031267;28;20393;-55
2022/12/13 18:58:02;;;;;;;82.28;75.72;;;-1.20;99.90;;;;;;5031166;28;20824;-57
2022/12/13 19:00:28;;;;;;;79.13;72.23;;;-1.20;99.90;;;;;;5030114;28;20408;-57
2022/12/13 19:02:54;;;;;;;77.38;70.95;;;-1.10;99.90;;;;;;5032816;28;20405;-59
2022/12/13 19:05:20;;;;;;;85.47;78.50;;;-1.10;99.90;;;;;;5031274;28;20463;-59
2022/12/13 19:07:46;;;;;;;77.80;71.20;;;-1.20;99.90;;;;;;5030342;28;20440;-59
2022/12/13 19:10:11;;;;;;;78.47;71.63;;;-1.20;99.90;;;;;;5028958;28;20401;-60
2022/12/13 19:12:37;;;;;;;79.53;72.77;;;-1.20;99.90;;;;;;5028143;28;20381;-59
2022/12/13 19:15:03;;;;;;;75.50;68.93;;;-1.20;99.90;;;;;;5027881;28;20389;-57
2022/12/13 19:17:28;;;;;;;75.22;69.00;;;-1.30;99.90;;;;;;5041428;28;20459;-59
2022/12/13 19:19:54;;;;;;;73.38;66.68;;;-1.30;99.90;;;;;;5025299;28;20595;-59
2022/12/13 19:22:23;;;;;;;75.63;69.32;;;-1.30;99.90;;;;;;5024911;28;20413;-59
2022/12/13 19:24:48;;;;;;;78.82;72.32;;;-1.40;99.90;;;;;;5040704;28;20661;-59
2022/12/13 19:27:15;;;;;;;83.13;75.97;;;-1.50;99.90;;;;;;5021792;28;20657;-58
2022/12/13 19:29:40;;;;;;;84.47;77.50;;;-1.50;99.90;;;;;;5020839;28;20518;-59
2022/12/13 19:32:06;;;;;;;85.75;78.40;;;-1.60;99.90;;;;;;5019461;28;20720;-59
2022/12/13 19:34:32;;;;;;;85.97;78.80;;;-1.60;99.90;;;;;;5019701;28;20409;-59
2022/12/13 19:36:57;;;;;;;87.60;80.60;;;-1.60;99.90;;;;;;5020753;28;20808;-59
2022/12/13 19:39:23;;;;;;;86.88;79.93;;;-1.60;99.90;;;;;;5021018;28;20385;-60
2022/12/13 19:41:49;;;;;;;86.80;79.70;;;-1.70;99.90;;;;;;5019996;28;20425;-59
2022/12/13 19:44:17;;;;;;;86.00;78.70;;;-1.70;99.90;;;;;;5022011;28;21566;-59
2022/12/13 19:46:43;;;;;;;83.10;76.10;;;-1.70;99.90;;;;;;5023489;28;20667;-59
2022/12/13 19:49:11;;;;;;;91.57;84.38;;;-1.80;99.90;;;;;;5024256;28;20451;-60
2022/12/13 19:51:37;;;;;;;90.13;82.72;;;-1.80;99.90;;;;;;5019347;28;20539;-59
2022/12/13 19:54:03;;;;;;;87.90;80.72;;;-1.70;99.90;;;;;;5019816;28;20726;-59
2022/12/13 19:56:28;;;;;;;87.22;80.22;;;-1.70;99.90;;;;;;5019869;28;20574;-60
2022/12/13 19:58:55;;;;;;;88.50;81.57;;;-1.60;99.90;;;;;;5037030;28;20590;-59
2022/12/13 20:01:20;;;;;;;85.97;79.28;;;-1.50;99.90;;;;;;5019809;28;20388;-58
2022/12/13 20:03:46;;;;;;;89.80;82.47;;;-1.60;99.90;;;;;;5019094;28;20598;-60
2022/12/13 20:06:16;;;;;;;88.70;81.65;;;-1.60;99.90;;;;;;5019191;28;20406;-60
2022/12/13 20:08:42;;;;;;;88.28;81.20;;;-1.70;99.90;;;;;;5019136;28;20590;-60
2022/12/13 20:11:10;;;;;;;86.38;79.68;;;-1.70;99.90;;;;;;5017803;28;20602;-60
2022/12/13 20:13:36;;;;;;;85.35;78.35;;;-1.70;99.90;;;;;;5016125;28;20385;-60
2022/12/13 20:16:05;;;;;;;81.13;74.50;;;-1.70;99.90;;;;;;5019458;28;20386;-57
2022/12/13 20:18:32;;;;;;;79.27;72.93;;;-1.70;99.90;;;;;;5037887;28;20403;-59
2022/12/13 20:21:06;;;;;;;77.20;70.83;;;-1.60;99.90;;;;;;5021679;28;20912;-56
2022/12/13 20:23:34;;;;;;;79.97;73.45;;;-1.60;99.90;;;;;;5021587;28;20464;-58
2022/12/13 20:26:05;;;;;;;82.53;75.70;;;-1.70;99.90;;;;;;5020056;28;20653;-60
2022/12/13 20:28:31;;;;;;;82.68;75.95;;;-1.80;99.90;;;;;;5022960;28;20590;-58
2022/12/13 20:31:26;;;;;;;82.77;76.07;;;-1.80;99.90;;;;;;5023047;28;20436;-61
2022/12/13 20:34:01;;;;;;;79.55;72.82;;;-1.80;99.90;;;;;;5021607;28;20812;-57
2022/12/13 20:36:27;;;;;;;81.22;74.50;;;-1.80;99.90;;;;;;5042399;28;20409;-58
2022/12/13 20:38:57;;;;;;;80.03;73.28;;;-1.90;99.90;;;;;;5028474;28;20408;-58
2022/12/13 20:41:28;;;;;;;79.53;73.07;;;-1.90;99.90;;;;;;5029156;28;20390;-58
2022/12/13 20:43:55;;;;;;;75.68;69.18;;;-1.90;99.90;;;;;;5044685;28;20413;-59
2022/12/13 20:46:22;;;;;;;78.45;71.95;;;-2.00;99.90;;;;;;5044022;28;20571;-59
2022/12/13 20:48:48;;;;;;;78.70;72.25;;;-2.00;99.90;;;;;;5044438;28;20464;-59
2022/12/13 20:51:17;;;;;;;83.93;77.35;;;-2.00;99.90;;;;;;5044099;28;20385;-59
2022/12/13 20:53:44;;;;;;;81.03;74.72;;;-1.90;99.90;;;;;;5025826;28;20484;-59
2022/12/13 20:56:13;;;;;;;78.45;72.32;;;-1.80;99.90;;;;;;5043698;28;20420;-58
2022/12/13 20:58:40;;;;;;;76.43;70.13;;;-1.70;99.90;;;;;;5027043;28;20412;-57
2022/12/13 21:01:06;;;;;;;74.57;68.17;;;-1.70;99.90;;;;;;5047052;28;20425;-59
2022/12/13 21:03:32;;;;;;;77.18;70.85;;;-1.80;99.90;;;;;;5029023;28;20401;-59
2022/12/13 21:05:58;;;;;;;80.82;74.07;;;-1.90;99.90;;;;;;5045056;28;20409;-57
2022/12/13 21:11:23;;;;;;;80.33;73.93;;;-2.10;99.90;;;;;;5046454;28;20519;-59
2022/12/13 21:13:57;;;;;;;82.22;75.30;;;-2.10;99.90;;;;;;5031637;28;20381;-58
2022/12/13 21:16:25;;;;;;;87.47;80.22;;;-2.20;99.90;;;;;;5046339;28;20436;-59
2022/12/13 21:18:53;;;;;;;81.53;75.23;;;-2.20;99.90;;;;;;5028796;28;20396;-59
2022/12/13 21:21:18;;;;;;;75.82;69.57;;;-2.10;99.90;;;;;;5047439;28;20386;-58
2022/12/13 21:23:44;;;;;;;77.47;71.13;;;-2.00;99.90;;;;;;5047659;28;20412;-56
2022/12/13 21:26:10;;;;;;;76.85;70.65;;;-1.90;99.90;;;;;;5048640;28;21050;-59
2022/12/13 21:28:36;;;;;;;79.85;73.47;;;-1.80;99.90;;;;;;5026594;28;20378;-59
2022/12/13 21:31:05;;;;;;;79.82;73.53;;;-1.80;99.90;;;;;;5045772;28;20403;-61
2022/12/13 21:33:31;;;;;;;81.70;75.22;;;-1.70;99.90;;;;;;5029271;28;21045;-59
2022/12/13 21:35:56;;;;;;;77.63;71.53;;;-1.70;99.90;;;;;;5029770;28;20389;-57
2022/12/13 21:38:22;;;;;;;74.33;68.07;;;-1.80;99.90;;;;;;5030571;28;20409;-65
2022/12/13 21:40:48;;;;;;;80.38;73.80;;;-1.80;99.90;;;;;;5030919;28;21055;-58
2022/12/13 21:43:15;;;;;;;76.60;70.45;;;-1.80;99.90;;;;;;5030959;28;20823;-60
2022/12/13 21:45:42;;;;;;;76.40;70.43;;;-1.80;99.90;;;;;;5031049;28;20467;-60
2022/12/13 21:48:08;;;;;;;81.03;74.53;;;-1.70;99.90;;;;;;5032036;28;20389;-57
2022/12/13 21:50:33;;;;;;;75.63;69.53;;;-1.70;99.90;;;;;;5032995;28;20389;-56
2022/12/13 21:52:59;;;;;;;74.07;68.37;;;-1.70;99.90;;;;;;5050462;28;20420;-58
2022/12/13 21:55:24;;;;;;;82.23;76.07;;;-1.70;99.90;;;;;;5030485;28;20856;-60
2022/12/13 22:00:35;;;;;;;79.47;73.20;;;-1.80;99.90;;;;;;5051496;28;20598;-60
2022/12/13 22:03:01;;;;;;;86.90;80.00;;;-1.80;99.90;;;;;;5051143;28;20412;-56
2022/12/13 22:05:26;;;;;;;84.63;78.30;;;-1.80;99.90;;;;;;5031014;28;20482;-61
2022/12/13 22:07:52;;;;;;;79.30;73.40;;;-1.80;99.90;;;;;;5033032;28;20420;-60
2022/12/13 22:10:17;;;;;;;81.63;75.35;;;-1.80;99.90;;;;;;5032413;28;20386;-58
2022/12/13 22:12:43;;;;;;;84.90;78.40;;;-1.70;99.90;;;;;;5030931;28;20736;-58
2022/12/13 22:15:13;;;;;;;79.43;73.30;;;-1.80;99.90;;;;;;5032007;28;20397;-61
2022/12/13 22:17:40;;;;;;;81.03;74.85;;;-1.90;99.90;;;;;;5032029;28;20420;-59
2022/12/13 22:20:10;;;;;;;79.18;72.85;;;-1.90;99.90;;;;;;5048550;28;20381;-59
2022/12/13 22:22:38;;;;;;;75.73;69.70;;;-2.00;99.90;;;;;;5031287;28;20397;-60
2022/12/13 22:25:04;;;;;;;77.85;71.63;;;-2.20;99.90;;;;;;5049845;28;20550;-60
2022/12/13 22:27:30;;;;;;;81.03;74.57;;;-2.20;99.90;;;;;;5034909;28;20378;-60
2022/12/13 22:29:56;;;;;;;77.50;71.50;;;-2.20;99.90;;;;;;5032383;28;20854;-59
2022/12/13 22:32:22;;;;;;;83.40;77.15;;;-2.30;99.90;;;;;;5049926;28;20458;-59
2022/12/13 22:34:48;;;;;;;76.80;71.07;;;-2.20;99.90;;;;;;5034420;28;20385;-60
2022/12/13 22:37:13;;;;;;;78.05;72.22;;;-2.20;99.90;;;;;;5033851;28;20956;-60
2022/12/13 22:39:39;;;;;;;75.05;68.90;;;-2.10;99.90;;;;;;5031458;28;20728;-59
2022/12/13 22:42:04;;;;;;;77.10;71.03;;;-2.20;99.90;;;;;;5030790;28;20774;-59
2022/12/13 22:44:30;;;;;;;76.30;70.07;;;-2.20;99.90;;;;;;5030805;28;20533;-60
2022/12/13 22:46:56;;;;;;;79.03;73.10;;;-2.40;99.90;;;;;;5031208;28;20390;-59
2022/12/13 22:49:22;;;;;;;72.97;67.27;;;-2.40;99.90;;;;;;5032139;28;20820;-61
2022/12/13 22:51:48;;;;;;;76.18;70.10;;;-2.30;99.90;;;;;;5032425;28;20382;-61
2022/12/13 22:54:13;;;;;;;76.28;70.15;;;-2.40;99.90;;;;;;5052190;28;20402;-61
2022/12/13 22:56:39;;;;;;;73.20;67.33;;;-2.50;99.90;;;;;;5034562;28;20389;-64
2022/12/13 22:59:08;;;;;;;74.87;68.97;;;-2.50;99.90;;;;;;5050668;28;20382;-61
2022/12/13 23:01:38;;;;;;;77.25;71.15;;;-2.40;99.90;;;;;;5031330;28;20878;-61
2022/12/13 23:04:05;;;;;;;73.72;67.88;;;-2.40;99.90;;;;;;5025531;28;20385;-58
2022/12/13 23:06:36;;;;;;;72.93;67.38;;;-2.40;99.90;;;;;;5041693;28;20396;-61
2022/12/13 23:09:05;;;;;;;77.18;71.20;;;-2.40;99.90;;;;;;5023517;28;20403;-60
2022/12/13 23:14:17;;;;;;;73.55;67.70;;;-2.30;99.90;;;;;;5033446;28;20395;-59
2022/12/13 23:16:43;;;;;;;70.30;64.60;;;-2.20;99.90;;;;;;5023184;28;20443;-59
2022/12/13 23:19:12;;;;;;;72.93;67.03;;;-2.40;99.90;;;;;;5003108;28;20442;-59
2022/12/13 23:21:37;;;;;;;68.07;62.63;;;-2.40;99.90;;;;;;5003280;28;20389;-59
2022/12/13 23:24:03;;;;;;;71.45;65.47;;;-2.60;99.90;;;;;;5006631;28;20408;-60
2022/12/13 23:26:30;;;;;;;67.38;61.85;;;-2.70;99.90;;;;;;5025987;28;20420;-59
2022/12/13 23:28:59;;;;;;;72.88;67.07;;;-2.80;99.90;;;;;;5015028;28;20373;-60
2022/12/13 23:31:28;;;;;;;75.25;69.35;;;-2.80;99.90;;;;;;5023945;28;20378;-60
2022/12/13 23:33:54;;;;;;;74.65;68.57;;;-2.80;99.90;;;;;;5029135;28;20972;-60
2022/12/13 23:36:22;;;;;;;76.40;70.25;;;-2.80;99.90;;;;;;5030255;28;20393;-62
2022/12/13 23:38:48;;;;;;;73.10;67.00;;;-2.80;99.90;;;;;;5031006;28;20504;-60
2022/12/13 23:41:17;;;;;;;74.23;68.13;;;-2.90;99.90;;;;;;5032411;28;20488;-59
2022/12/13 23:43:44;;;;;;;71.47;65.88;;;-3.00;99.90;;;;;;5033041;28;20450;-58
2022/12/13 23:46:14;;;;;;;;;;;-3.00;99.90;;;;;;5052061;28;20544;-60
2022/12/13 23:48:40;;;;;;;;;;;-2.90;99.90;;;;;;5036114;28;19919;-59
2022/12/13 23:51:06;;;;;;;;;;;-2.80;99.90;;;;;;5036507;28;19905;-59
2022/12/13 23:53:31;;;;;;;;;;;-2.70;99.90;;;;;;5038698;28;19909;-60
2022/12/13 23:55:57;;;;;;;165.33;152.87;;;-2.80;99.90;;;;;;5034596;28;20394;-60
2022/12/13 23:58:26;;;;;;;105.53;98.22;;;-2.80;99.90;;;;;;5032968;28;20404;-60
